Time;durP1;ratioP1;P1;durP2;ratioP2;P2;SDS_P1;SDS_P2;PMS_P1;PMS_P2;Temp;Humidity;BMP_temperature;BMP_pressure;BME280_temperature;BME280_humidity;BME280_pressure;Samples;Min_cycle;Max_cycle;Signal;HPM_P1;HPM_P2
2022/04/13 00:00:13;;;;;;;12.93;4.45;;;12.90;72.10;;;;;;5012097;28;20383;-74
2022/04/13 00:02:39;;;;;;;8.60;4.07;;;12.90;72.00;;;;;;5011930;28;20029;-75
2022/04/13 00:05:05;;;;;;;8.45;4.07;;;12.90;72.20;;;;;;5011946;28;20022;-74
2022/04/13 00:07:31;;;;;;;12.27;4.50;;;12.90;72.20;;;;;;5011565;28;20525;-76
2022/04/13 00:09:57;;;;;;;20.05;4.20;;;12.80;72.20;;;;;;5011749;28;20029;-75
2022/04/13 00:12:23;;;;;;;13.13;4.57;;;12.80;72.60;;;;;;5011804;28;20022;-75
2022/04/13 00:14:48;;;;;;;10.23;4.63;;;12.80;72.50;;;;;;5011950;28;20026;-75
2022/04/13 00:17:14;;;;;;;13.10;4.82;;;12.90;72.50;;;;;;5011480;28;20041;-76
2022/04/13 00:19:39;;;;;;;9.68;4.55;;;12.80;72.70;;;;;;5012055;28;20084;-76
2022/04/13 00:22:05;;;;;;;11.95;4.45;;;12.80;72.80;;;;;;5011844;28;20026;-75
2022/04/13 00:24:30;;;;;;;8.20;4.30;;;12.80;72.80;;;;;;5011714;28;20530;-74
2022/04/13 00:26:57;;;;;;;11.10;4.45;;;12.80;72.90;;;;;;5012640;28;20068;-76
2022/04/13 00:29:23;;;;;;;12.80;4.78;;;12.70;73.10;;;;;;5015462;28;20029;-75
2022/04/13 00:31:51;;;;;;;10.43;4.40;;;12.80;73.30;;;;;;5015473;28;20372;-76
2022/04/13 00:34:16;;;;;;;12.27;4.88;;;12.70;73.40;;;;;;5015334;28;20489;-75
2022/04/13 00:36:42;;;;;;;7.35;3.92;;;12.70;73.60;;;;;;5015116;28;20026;-75
2022/04/13 00:39:08;;;;;;;8.27;4.53;;;12.70;73.60;;;;;;5015328;28;20517;-76
2022/04/13 00:41:33;;;;;;;11.65;4.32;;;12.70;73.70;;;;;;5015242;28;20026;-75
2022/04/13 00:44:09;;;;;;;11.57;4.25;;;12.70;73.90;;;;;;5015118;28;20029;-75
2022/04/13 00:46:35;;;;;;;11.10;4.78;;;12.60;74.10;;;;;;5014721;28;20163;-74
2022/04/13 00:49:02;;;;;;;11.23;4.20;;;12.60;74.20;;;;;;5015478;28;20443;-75
2022/04/13 00:51:29;;;;;;;10.52;4.18;;;12.60;74.30;;;;;;5015931;28;20026;-75
2022/04/13 00:53:59;;;;;;;14.38;6.10;;;12.60;74.40;;;;;;5015591;28;20037;-75
2022/04/13 00:56:27;;;;;;;9.57;5.00;;;12.60;74.70;;;;;;5020785;28;20466;-74
2022/04/13 00:59:09;;;;;;;11.70;4.80;;;12.60;74.70;;;;;;5021549;28;20029;-74
2022/04/13 01:01:37;;;;;;;12.93;5.07;;;12.60;74.80;;;;;;5016683;28;20028;-75
2022/04/13 01:04:04;;;;;;;10.15;4.72;;;12.60;74.90;;;;;;5015943;28;20029;-76
2022/04/13 01:06:30;;;;;;;10.93;4.97;;;12.50;75.10;;;;;;5015136;28;20091;-77
2022/04/13 01:08:57;;;;;;;9.82;4.97;;;12.50;75.20;;;;;;5015288;28;20480;-75
2022/04/13 01:11:24;;;;;;;12.02;5.38;;;12.50;75.20;;;;;;5014947;28;20085;-74
2022/04/13 01:13:53;;;;;;;12.68;4.50;;;12.50;75.50;;;;;;5015591;28;20124;-75
2022/04/13 01:16:19;;;;;;;12.32;5.00;;;12.50;75.70;;;;;;5014515;28;20489;-76
2022/04/13 01:18:45;;;;;;;12.40;4.70;;;12.40;76.00;;;;;;5014987;28;20105;-74
2022/04/13 01:21:13;;;;;;;13.02;5.15;;;12.40;76.10;;;;;;5015503;28;20368;-76
2022/04/13 01:23:39;;;;;;;9.90;4.88;;;12.40;76.30;;;;;;5015136;28;20033;-75
2022/04/13 01:26:09;;;;;;;13.65;5.25;;;12.40;76.50;;;;;;5016077;28;20018;-76
2022/04/13 01:28:34;;;;;;;11.63;5.45;;;12.40;76.60;;;;;;5016590;28;20054;-75
2022/04/13 01:31:00;;;;;;;10.90;5.07;;;12.30;76.90;;;;;;5015843;28;20112;-75
2022/04/13 01:33:29;;;;;;;11.80;5.10;;;12.30;76.90;;;;;;5014933;28;20022;-76
2022/04/13 01:36:00;;;;;;;35.22;13.27;;;12.30;77.20;;;;;;5019098;28;20021;-75
2022/04/13 01:38:29;;;;;;;15.52;5.57;;;12.20;77.50;;;;;;5016460;28;20026;-74
2022/04/13 01:40:58;;;;;;;13.43;5.65;;;12.30;77.50;;;;;;5014994;28;20602;-75
2022/04/13 01:43:24;;;;;;;11.45;5.18;;;12.30;77.80;;;;;;5014751;28;20438;-75
2022/04/13 01:45:50;;;;;;;13.50;5.80;;;12.20;77.90;;;;;;5014042;28;20026;-75
2022/04/13 01:48:19;;;;;;;18.95;6.05;;;12.20;77.90;;;;;;5014046;28;20088;-76
2022/04/13 01:50:45;;;;;;;9.90;5.35;;;12.20;78.20;;;;;;5014218;28;20030;-76
2022/04/13 01:53:11;;;;;;;12.93;5.53;;;12.20;78.20;;;;;;5014089;28;20478;-74
2022/04/13 01:55:37;;;;;;;13.38;5.90;;;12.20;78.50;;;;;;5013753;28;20025;-75
2022/04/13 01:58:03;;;;;;;11.63;5.63;;;12.20;78.70;;;;;;5013166;28;20428;-75
2022/04/13 02:00:28;;;;;;;15.40;5.65;;;12.20;78.90;;;;;;5014512;28;20487;-76
2022/04/13 02:02:54;;;;;;;12.82;6.03;;;12.20;79.00;;;;;;5014477;28;20026;-76
2022/04/13 02:05:20;;;;;;;16.30;6.18;;;12.20;79.10;;;;;;5014521;28;20105;-76
2022/04/13 02:07:45;;;;;;;14.75;6.00;;;12.20;79.30;;;;;;5014967;28;20033;-76
2022/04/13 02:10:11;;;;;;;12.05;6.03;;;12.20;79.10;;;;;;5014059;28;20022;-75
2022/04/13 02:12:37;;;;;;;12.48;6.28;;;12.20;79.30;;;;;;5013537;28;20056;-75
2022/04/13 02:15:04;;;;;;;11.75;6.05;;;12.10;79.60;;;;;;5013478;28;20038;-75
2022/04/13 02:17:29;;;;;;;13.27;6.10;;;12.20;79.60;;;;;;5013346;28;20022;-76
2022/04/13 02:19:55;;;;;;;12.80;6.20;;;12.10;79.60;;;;;;5013452;28;20076;-75
2022/04/13 02:22:20;;;;;;;12.57;6.05;;;12.10;79.60;;;;;;5013550;28;20383;-78
2022/04/13 02:24:46;;;;;;;17.58;6.50;;;12.20;79.90;;;;;;5013729;28;20507;-75
2022/04/13 02:27:12;;;;;;;14.55;6.28;;;12.20;80.30;;;;;;5013225;28;20025;-75
2022/04/13 02:29:38;;;;;;;16.15;6.60;;;12.10;79.90;;;;;;5013706;28;20061;-77
2022/04/13 02:32:04;;;;;;;13.50;6.43;;;12.10;80.50;;;;;;5013147;28;20060;-76
2022/04/13 02:34:30;;;;;;;14.85;6.65;;;12.10;80.20;;;;;;5013212;28;20340;-80
2022/04/13 02:36:57;;;;;;;16.17;6.40;;;12.20;80.40;;;;;;5012943;28;20064;-75
2022/04/13 02:39:23;;;;;;;15.40;6.90;;;12.20;80.30;;;;;;5013178;28;20097;-76
2022/04/13 02:41:48;;;;;;;12.50;6.43;;;12.20;79.70;;;;;;5013197;28;20038;-76
2022/04/13 02:44:14;;;;;;;22.23;6.95;;;12.30;80.20;;;;;;5013288;28;20091;-76
2022/04/13 02:46:41;;;;;;;10.82;6.30;;;12.20;80.20;;;;;;5012867;28;20033;-76
2022/04/13 02:49:07;;;;;;;16.30;6.35;;;12.20;80.60;;;;;;5013247;28;20442;-75
2022/04/13 02:51:32;;;;;;;13.63;6.75;;;12.20;80.40;;;;;;5015038;28;20054;-77
2022/04/13 02:53:58;;;;;;;14.85;6.82;;;12.20;80.30;;;;;;5013455;28;20117;-76
2022/04/13 02:56:23;;;;;;;11.68;6.25;;;12.20;80.20;;;;;;5018044;28;20437;-75
2022/04/13 02:58:49;;;;;;;18.65;6.75;;;12.20;80.20;;;;;;5015882;28;20034;-75
2022/04/13 03:01:14;;;;;;;15.60;6.57;;;12.30;80.30;;;;;;5013160;28;20021;-78
2022/04/13 03:03:40;;;;;;;17.65;6.80;;;12.20;80.30;;;;;;5012096;28;20541;-75
2022/04/13 03:06:05;;;;;;;16.27;6.95;;;12.20;80.50;;;;;;5013188;28;20105;-76
2022/04/13 03:08:31;;;;;;;14.52;6.80;;;12.20;80.50;;;;;;5017040;28;20065;-78
2022/04/13 03:10:56;;;;;;;17.40;7.35;;;12.20;80.70;;;;;;5016388;28;20037;-79
2022/04/13 03:13:22;;;;;;;17.00;7.40;;;12.30;80.80;;;;;;5016352;28;20312;-77
2022/04/13 03:15:48;;;;;;;15.90;7.10;;;12.20;80.80;;;;;;5019648;28;20038;-78
2022/04/13 03:18:13;;;;;;;15.25;7.18;;;12.20;80.90;;;;;;5022202;28;20030;-77
2022/04/13 03:20:39;;;;;;;24.35;7.85;;;12.20;81.10;;;;;;5024713;28;20018;-76
2022/04/13 03:23:04;;;;;;;16.45;7.53;;;12.20;81.20;;;;;;5036846;28;20029;-76
2022/04/13 03:25:30;;;;;;;17.25;7.30;;;12.20;81.70;;;;;;5036849;28;20036;-74
2022/04/13 03:27:56;;;;;;;15.55;7.40;;;12.20;81.70;;;;;;5031319;28;20038;-76
2022/04/13 03:30:22;;;;;;;13.38;6.85;;;12.20;81.90;;;;;;5030650;28;20022;-76
2022/04/13 03:32:48;;;;;;;15.10;6.95;;;12.20;82.20;;;;;;5031017;28;20024;-75
2022/04/13 03:35:15;;;;;;;16.45;7.10;;;12.20;82.20;;;;;;5030015;28;20062;-75
2022/04/13 03:37:40;;;;;;;13.18;6.93;;;12.20;82.00;;;;;;5026058;28;20021;-78
2022/04/13 03:40:08;;;;;;;12.70;6.95;;;12.20;82.20;;;;;;5025994;28;20442;-77
2022/04/13 03:42:38;;;;;;;30.63;11.13;;;12.20;82.40;;;;;;5024183;28;20046;-76
2022/04/13 03:45:11;;;;;;;16.25;7.93;;;12.10;82.60;;;;;;5015234;28;20496;-79
2022/04/13 03:47:46;;;;;;;17.67;7.75;;;12.10;82.80;;;;;;5016414;28;20049;-80
2022/04/13 03:50:11;;;;;;;17.08;7.85;;;12.30;83.30;;;;;;5015087;28;20032;-77
2022/04/13 03:52:37;;;;;;;13.70;7.38;;;12.10;83.30;;;;;;5014363;28;20375;-78
2022/04/13 03:55:05;;;;;;;16.98;8.07;;;12.10;83.40;;;;;;5014085;28;20525;-77
2022/04/13 03:57:31;;;;;;;14.70;7.57;;;12.10;83.40;;;;;;5016609;28;20029;-77
2022/04/13 03:59:57;;;;;;;16.35;7.72;;;12.10;83.50;;;;;;5023710;28;20018;-77
2022/04/13 04:02:23;;;;;;;19.95;8.10;;;12.00;83.90;;;;;;5025614;28;20022;-78
2022/04/13 04:04:49;;;;;;;18.02;9.00;;;12.00;84.20;;;;;;5020086;28;20025;-78
2022/04/13 04:07:14;;;;;;;18.70;8.90;;;12.00;84.40;;;;;;5028967;28;20483;-77
2022/04/13 04:09:40;;;;;;;15.20;7.97;;;12.00;84.40;;;;;;5028652;28;20451;-77
2022/04/13 04:12:06;;;;;;;15.88;7.05;;;12.00;84.90;;;;;;5031378;28;20086;-77
2022/04/13 04:14:32;;;;;;;22.92;8.20;;;12.00;84.80;;;;;;5021258;28;20060;-77
2022/04/13 04:16:58;;;;;;;21.50;7.60;;;12.00;85.20;;;;;;5021621;28;20026;-79
2022/04/13 04:19:23;;;;;;;19.75;7.88;;;12.00;85.60;;;;;;5020075;28;20104;-79
2022/04/13 04:21:49;;;;;;;16.55;7.43;;;11.90;85.50;;;;;;5027568;28;20494;-77
2022/04/13 04:24:14;;;;;;;17.80;7.90;;;11.90;85.60;;;;;;5022420;28;20029;-75
2022/04/13 04:26:40;;;;;;;18.08;8.35;;;11.90;85.70;;;;;;5026793;28;20068;-79
2022/04/13 04:29:06;;;;;;;18.60;8.10;;;11.90;86.00;;;;;;5024616;28;20026;-77
2022/04/13 04:31:50;;;;;;;27.85;8.68;;;11.80;86.30;;;;;;5025474;28;20434;-76
2022/04/13 04:34:17;;;;;;;16.75;8.13;;;11.80;86.60;;;;;;5025474;28;20032;-77
2022/04/13 04:36:42;;;;;;;17.48;8.05;;;11.80;86.80;;;;;;5027528;28;20014;-76
2022/04/13 04:39:08;;;;;;;18.92;7.75;;;11.80;87.00;;;;;;5028635;28;20030;-77
2022/04/13 04:41:34;;;;;;;17.60;7.60;;;11.80;87.10;;;;;;5026372;28;20030;-79
2022/04/13 04:44:00;;;;;;;22.08;8.50;;;11.80;87.40;;;;;;5020176;28;20389;-77
2022/04/13 04:46:25;;;;;;;21.48;7.97;;;11.70;87.60;;;;;;5017726;28;20083;-79
2022/04/13 04:48:51;;;;;;;20.23;7.72;;;11.70;87.90;;;;;;5017816;28;20025;-81
2022/04/13 04:51:16;;;;;;;15.82;8.13;;;11.70;88.50;;;;;;5030886;28;20033;-78
2022/04/13 04:53:42;;;;;;;21.23;8.15;;;11.70;88.70;;;;;;5031527;28;20033;-77
2022/04/13 04:56:08;;;;;;;16.50;7.90;;;11.70;89.10;;;;;;5024322;28;20042;-78
2022/04/13 04:58:33;;;;;;;16.00;7.80;;;11.70;89.20;;;;;;5021081;28;20105;-79
2022/04/13 05:00:59;;;;;;;19.05;8.02;;;11.60;89.60;;;;;;5024358;28;20083;-79
2022/04/13 05:03:24;;;;;;;25.30;8.20;;;11.60;89.90;;;;;;5021726;28;20030;-77
2022/04/13 05:05:51;;;;;;;17.80;8.32;;;11.60;89.80;;;;;;5019127;28;20089;-77
2022/04/13 05:08:16;;;;;;;21.83;10.05;;;11.60;90.10;;;;;;5019881;28;20117;-79
2022/04/13 05:10:43;;;;;;;18.15;8.38;;;11.60;90.10;;;;;;5020158;28;20536;-78
2022/04/13 05:13:09;;;;;;;19.45;7.90;;;11.60;90.20;;;;;;5022368;28;20026;-78
2022/04/13 05:15:34;;;;;;;15.02;7.80;;;11.60;90.40;;;;;;5023120;28;20049;-78
2022/04/13 05:18:00;;;;;;;15.68;7.80;;;11.60;90.60;;;;;;5020883;28;20028;-78
2022/04/13 05:20:26;;;;;;;16.77;7.93;;;11.60;90.60;;;;;;5023607;28;20030;-79
2022/04/13 05:22:51;;;;;;;19.45;8.57;;;11.60;90.60;;;;;;5018129;28;20026;-78
2022/04/13 05:25:17;;;;;;;18.92;8.10;;;11.60;90.80;;;;;;5016096;28;20647;-78
2022/04/13 05:27:44;;;;;;;23.52;8.20;;;11.70;90.90;;;;;;5016617;28;20026;-77
2022/04/13 05:30:11;;;;;;;17.88;8.10;;;11.70;90.90;;;;;;5016313;28;20113;-80
2022/04/13 05:32:59;;;;;;;24.58;8.52;;;11.70;91.00;;;;;;5017179;28;20494;-75
2022/04/13 05:35:26;;;;;;;21.27;7.88;;;11.70;91.10;;;;;;5011324;28;20038;-77
2022/04/13 05:37:52;;;;;;;15.52;7.63;;;11.70;91.20;;;;;;5016716;28;20491;-77
2022/04/13 05:40:18;;;;;;;18.85;8.30;;;11.70;91.30;;;;;;5016985;28;20037;-76
2022/04/13 05:42:44;;;;;;;19.80;8.85;;;11.70;91.40;;;;;;5016119;28;20029;-75
2022/04/13 05:45:10;;;;;;;21.70;8.70;;;11.70;91.40;;;;;;5013870;28;20025;-76
2022/04/13 05:47:38;;;;;;;22.73;8.98;;;11.70;91.40;;;;;;5015933;28;20030;-80
2022/04/13 05:50:04;;;;;;;20.00;8.95;;;11.80;91.40;;;;;;5017675;28;20026;-76
2022/04/13 05:52:30;;;;;;;24.30;9.25;;;11.80;91.50;;;;;;5016975;28;20116;-77
2022/04/13 05:54:56;;;;;;;21.77;9.20;;;11.80;91.50;;;;;;5017404;28;20074;-76
2022/04/13 05:57:21;;;;;;;20.00;8.75;;;11.90;91.40;;;;;;5018017;28;20083;-78
2022/04/13 05:59:47;;;;;;;18.15;8.57;;;11.90;91.30;;;;;;5019357;28;20037;-77
2022/04/13 06:02:13;;;;;;;19.88;8.65;;;12.00;91.50;;;;;;5019031;28;20398;-75
2022/04/13 06:04:38;;;;;;;22.55;8.27;;;11.90;91.50;;;;;;5015475;28;20045;-76
2022/04/13 06:07:04;;;;;;;27.73;9.13;;;12.00;91.70;;;;;;5015507;28;20092;-76
2022/04/13 06:09:29;;;;;;;21.13;9.40;;;12.00;91.50;;;;;;5017232;28;20034;-76
2022/04/13 06:11:55;;;;;;;19.95;9.35;;;12.00;91.60;;;;;;5015085;28;20038;-78
2022/04/13 06:14:21;;;;;;;21.45;10.43;;;12.00;91.70;;;;;;5014590;28;20060;-77
2022/04/13 06:16:46;;;;;;;16.90;8.85;;;12.00;91.70;;;;;;5015145;28;20018;-77
2022/04/13 06:19:12;;;;;;;21.77;8.40;;;12.10;91.80;;;;;;5017552;28;20109;-77
2022/04/13 06:21:38;;;;;;;22.35;9.48;;;12.10;91.80;;;;;;5014982;28;20025;-76
2022/04/13 06:24:03;;;;;;;15.00;8.35;;;12.20;92.00;;;;;;5015351;28;20029;-75
2022/04/13 06:26:29;;;;;;;22.00;9.23;;;12.30;91.90;;;;;;5013986;28;20026;-78
2022/04/13 06:28:55;;;;;;;23.90;9.63;;;12.40;92.00;;;;;;5014719;28;20056;-77
2022/04/13 06:31:21;;;;;;;18.58;9.32;;;12.50;91.80;;;;;;5015469;28;20091;-77
2022/04/13 06:33:48;;;;;;;20.95;9.13;;;12.60;91.60;;;;;;5016602;28;20030;-77
2022/04/13 06:36:14;;;;;;;19.73;9.52;;;12.60;91.20;;;;;;5015850;28;20533;-78
2022/04/13 06:38:40;;;;;;;19.85;9.18;;;12.60;91.10;;;;;;5017374;28;20038;-77
2022/04/13 06:41:10;;;;;;;23.92;9.50;;;12.70;91.10;;;;;;5016587;28;20101;-78
2022/04/13 06:43:35;;;;;;;27.55;10.52;;;12.70;91.00;;;;;;5015512;28;20128;-77
2022/04/13 06:46:01;;;;;;;26.13;10.15;;;12.70;91.10;;;;;;5015548;28;20060;-78
2022/04/13 06:48:26;;;;;;;26.33;9.43;;;12.80;91.20;;;;;;5018836;28;20030;-75
2022/04/13 06:50:52;;;;;;;20.70;9.70;;;12.80;91.20;;;;;;5018337;28;20410;-77
2022/04/13 06:53:18;;;;;;;28.83;11.38;;;12.80;91.20;;;;;;5019941;28;20041;-78
2022/04/13 06:55:45;;;;;;;27.45;10.13;;;12.80;91.00;;;;;;5019307;28;20029;-76
2022/04/13 06:58:11;;;;;;;25.83;10.98;;;12.90;91.20;;;;;;5020057;28;20100;-77
2022/04/13 07:00:36;;;;;;;27.48;10.70;;;13.00;91.60;;;;;;5018968;28;20037;-76
2022/04/13 07:03:02;;;;;;;26.00;10.27;;;13.10;91.20;;;;;;5018408;28;20026;-77
2022/04/13 07:05:28;;;;;;;27.50;10.10;;;13.10;91.10;;;;;;5015367;28;20014;-77
2022/04/13 07:07:57;;;;;;;27.15;10.60;;;13.20;91.00;;;;;;5014693;28;20080;-77
2022/04/13 07:10:26;;;;;;;27.20;10.75;;;13.20;91.00;;;;;;5016903;28;20029;-76
2022/04/13 07:12:51;;;;;;;27.48;12.25;;;13.20;91.00;;;;;;5017203;28;20018;-77
2022/04/13 07:15:17;;;;;;;26.00;11.15;;;13.20;91.10;;;;;;5015531;28;20033;-77
2022/04/13 07:17:43;;;;;;;22.65;10.70;;;13.30;91.10;;;;;;5016949;28;20053;-76
2022/04/13 07:20:12;;;;;;;25.38;10.00;;;13.40;91.20;;;;;;5020739;28;20025;-77
2022/04/13 07:22:52;;;;;;;20.92;10.10;;;13.40;91.10;;;;;;5019547;28;20033;-77
2022/04/13 07:25:19;;;;;;;25.40;11.70;;;13.40;91.00;;;;;;5020521;28;20045;-75
2022/04/13 07:27:45;;;;;;;24.75;10.45;;;13.60;91.10;;;;;;5031331;28;20057;-75
2022/04/13 07:30:13;;;;;;;25.67;10.48;;;13.60;91.00;;;;;;5033364;28;20029;-75
2022/04/13 07:32:38;;;;;;;25.08;10.77;;;13.70;90.90;;;;;;5018639;28;20026;-76
2022/04/13 07:35:04;;;;;;;23.75;10.95;;;13.80;90.80;;;;;;5018464;28;20049;-77
2022/04/13 07:37:31;;;;;;;30.17;11.13;;;13.90;90.70;;;;;;5026168;28;20041;-76
2022/04/13 07:39:57;;;;;;;20.48;10.35;;;14.00;90.50;;;;;;5025887;28;20018;-76
2022/04/13 07:42:24;;;;;;;24.52;10.35;;;14.10;90.30;;;;;;5021712;28;20341;-77
2022/04/13 07:44:50;;;;;;;38.58;10.25;;;14.20;90.30;;;;;;5021398;28;20451;-77
2022/04/13 07:47:16;;;;;;;28.90;10.52;;;14.30;90.60;;;;;;5020410;28;20038;-77
2022/04/13 07:49:43;;;;;;;23.00;10.80;;;14.40;90.30;;;;;;5021610;28;20030;-75
2022/04/13 07:52:09;;;;;;;24.95;9.50;;;14.50;90.20;;;;;;5023978;28;20026;-77
2022/04/13 07:54:35;;;;;;;25.63;10.93;;;14.60;90.20;;;;;;5020752;28;20036;-76
2022/04/13 07:57:01;;;;;;;25.25;10.20;;;14.70;89.70;;;;;;5019678;28;20022;-74
2022/04/13 07:59:27;;;;;;;22.90;10.15;;;14.80;89.60;;;;;;5020485;28;20038;-75
2022/04/13 08:01:53;;;;;;;32.20;11.38;;;14.80;89.90;;;;;;5023120;28;20018;-77
2022/04/13 08:04:19;;;;;;;23.58;10.23;;;15.00;89.70;;;;;;5024364;28;20514;-78
2022/04/13 08:06:45;;;;;;;19.05;10.07;;;15.20;89.00;;;;;;5023812;28;20099;-78
2022/04/13 08:09:10;;;;;;;22.80;10.68;;;15.40;88.40;;;;;;5023914;28;20030;-77
2022/04/13 08:11:36;;;;;;;20.63;10.55;;;15.60;87.90;;;;;;5026869;28;20037;-76
2022/04/13 08:14:01;;;;;;;21.02;9.88;;;15.80;87.20;;;;;;5022338;28;20056;-78
2022/04/13 08:16:27;;;;;;;24.90;10.80;;;16.00;87.00;;;;;;5019637;28;20028;-78
2022/04/13 08:18:52;;;;;;;22.67;10.27;;;16.20;86.00;;;;;;5023501;28;20509;-75
2022/04/13 08:21:18;;;;;;;24.08;10.23;;;16.40;85.30;;;;;;5024214;28;20034;-76
2022/04/13 08:23:43;;;;;;;19.75;9.68;;;16.50;85.00;;;;;;5027967;28;20462;-75
2022/04/13 08:26:09;;;;;;;19.27;9.55;;;16.50;85.10;;;;;;5022747;28;20369;-77
2022/04/13 08:28:34;;;;;;;18.45;10.13;;;16.70;84.50;;;;;;5022800;28;20042;-77
2022/04/13 08:31:04;;;;;;;30.52;10.80;;;16.60;84.40;;;;;;5021062;28;20030;-77
2022/04/13 08:33:30;;;;;;;19.55;10.10;;;16.60;84.90;;;;;;5019910;28;20033;-77
2022/04/13 08:35:56;;;;;;;24.85;10.65;;;16.60;85.00;;;;;;5022865;28;20022;-79
2022/04/13 08:38:22;;;;;;;22.67;10.70;;;16.70;84.80;;;;;;5022403;28;20033;-78
2022/04/13 08:41:01;;;;;;;20.48;10.48;;;16.80;84.80;;;;;;5022653;28;20021;-77
2022/04/13 08:43:45;;;;;;;23.40;10.70;;;16.80;84.90;;;;;;5023317;28;20034;-77
2022/04/13 08:46:24;;;;;;;15.50;9.45;;;16.70;85.20;;;;;;5022405;28;20103;-75
2022/04/13 08:48:55;;;;;;;21.05;10.27;;;16.90;85.20;;;;;;5017548;28;20030;-78
2022/04/13 08:51:22;;;;;;;21.63;10.68;;;17.00;85.10;;;;;;5019100;28;20025;-78
2022/04/13 08:54:20;;;;;;;22.15;10.35;;;17.30;84.60;;;;;;5018311;28;20024;-77
2022/04/13 08:56:54;;;;;;;25.02;11.27;;;17.50;83.70;;;;;;5017904;28;20022;-78
2022/04/13 08:59:37;;;;;;;19.17;10.75;;;17.90;83.20;;;;;;5020634;28;20082;-77
2022/04/13 09:02:32;;;;;;;22.98;9.85;;;18.20;81.70;;;;;;5022806;28;20025;-79
2022/04/13 09:05:00;;;;;;;21.80;10.50;;;18.40;81.30;;;;;;5016933;28;20030;-77
2022/04/13 09:07:31;;;;;;;20.38;9.43;;;18.50;80.50;;;;;;5020637;28;20038;-74
2022/04/13 09:10:00;;;;;;;27.70;10.15;;;18.60;80.30;;;;;;5016646;28;20061;-75
2022/04/13 09:12:30;;;;;;;22.42;11.15;;;18.90;79.70;;;;;;5017381;28;20040;-76
2022/04/13 09:14:57;;;;;;;25.02;10.52;;;19.10;79.30;;;;;;5017110;28;20037;-75
2022/04/13 09:17:27;;;;;;;28.30;11.75;;;19.50;77.80;;;;;;5015805;28;20045;-75
2022/04/13 09:19:53;;;;;;;36.78;12.10;;;19.80;76.90;;;;;;5017338;28;20117;-74
2022/04/13 09:22:21;;;;;;;22.27;11.07;;;20.20;76.30;;;;;;5017678;28;20048;-74
2022/04/13 09:24:47;;;;;;;24.65;11.55;;;20.30;75.60;;;;;;5016836;28;20383;-75
2022/04/13 09:27:14;;;;;;;23.48;11.27;;;20.40;75.90;;;;;;5016716;28;20033;-77
2022/04/13 09:29:40;;;;;;;27.30;12.23;;;20.60;75.70;;;;;;5016047;28;20033;-75
2022/04/13 09:32:07;;;;;;;23.80;10.73;;;21.10;75.30;;;;;;5015269;28;20293;-74
2022/04/13 09:34:32;;;;;;;23.45;10.82;;;21.10;74.00;;;;;;5013510;28;20444;-77
2022/04/13 09:37:00;;;;;;;24.35;11.50;;;21.20;73.50;;;;;;5015199;28;20057;-75
2022/04/13 09:39:26;;;;;;;28.10;11.98;;;21.30;73.20;;;;;;5016710;28;20022;-75
2022/04/13 09:41:52;;;;;;;26.15;11.98;;;21.40;72.40;;;;;;5018102;28;20018;-76
2022/04/13 09:44:18;;;;;;;27.48;11.20;;;21.40;72.30;;;;;;5018181;28;20545;-75
2022/04/13 09:46:44;;;;;;;25.88;10.85;;;21.50;72.00;;;;;;5014434;28;20037;-74
2022/04/13 09:49:13;;;;;;;27.02;11.50;;;21.40;72.10;;;;;;5014922;28;20447;-75
2022/04/13 09:51:42;;;;;;;25.27;11.38;;;21.60;72.10;;;;;;5015253;28;20127;-75
2022/04/13 09:54:11;;;;;;;24.35;11.43;;;21.60;71.90;;;;;;5016384;28;20090;-75
2022/04/13 09:56:38;;;;;;;31.00;11.80;;;21.80;72.70;;;;;;5015844;28;20045;-75
2022/04/13 09:59:07;;;;;;;28.42;11.93;;;22.00;72.00;;;;;;5015204;28;20081;-75
2022/04/13 10:01:36;;;;;;;22.63;11.48;;;22.00;71.90;;;;;;5016838;28;20447;-75
2022/04/13 10:04:07;;;;;;;32.17;12.50;;;22.00;71.30;;;;;;5021489;28;20490;-75
2022/04/13 10:06:33;;;;;;;28.27;12.32;;;21.80;71.70;;;;;;5016377;28;20021;-75
2022/04/13 10:09:08;;;;;;;32.75;11.65;;;21.70;73.30;;;;;;5016824;28;20026;-74
2022/04/13 10:11:35;;;;;;;30.08;13.52;;;21.60;73.80;;;;;;5016766;28;20223;-75
2022/04/13 10:14:02;;;;;;;34.30;14.65;;;21.50;73.30;;;;;;5015088;28;20132;-75
2022/04/13 10:16:37;;;;;;;30.38;13.13;;;21.40;74.20;;;;;;5014712;28;20022;-75
2022/04/13 10:19:05;;;;;;;;;;;21.30;74.80;;;;;;5015480;28;20025;-75
2022/04/13 10:21:36;;;;;;;33.67;14.80;;;21.30;74.50;;;;;;5014137;28;19929;-77
2022/04/13 10:24:03;;;;;;;28.40;13.52;;;21.30;74.50;;;;;;5013884;28;20036;-75
2022/04/13 10:26:29;;;;;;;31.83;12.88;;;21.40;74.40;;;;;;5013122;28;20030;-76
2022/04/13 10:28:54;;;;;;;33.00;14.50;;;21.60;74.00;;;;;;5015363;28;20546;-75
2022/04/13 10:31:20;;;;;;;27.38;13.05;;;21.70;74.30;;;;;;5014902;28;20057;-76
2022/04/13 10:33:48;;;;;;;30.83;14.43;;;21.80;73.70;;;;;;5016280;28;20033;-77
2022/04/13 10:36:18;;;;;;;36.15;14.00;;;21.90;74.00;;;;;;5017349;28;20014;-76
2022/04/13 10:38:44;;;;;;;35.22;13.40;;;22.10;74.30;;;;;;5019430;28;20053;-76
2022/04/13 10:41:15;;;;;;;36.78;14.90;;;22.20;73.30;;;;;;5016044;28;20382;-79
2022/04/13 10:43:46;;;;;;;31.30;13.88;;;22.30;73.00;;;;;;5014337;28;20033;-75
2022/04/13 10:46:14;;;;;;;45.50;16.13;;;22.50;73.40;;;;;;5014590;28;20018;-77
2022/04/13 10:48:43;;;;;;;33.08;16.75;;;22.60;72.40;;;;;;5018725;28;20057;-76
2022/04/13 10:51:18;;;;;;;38.45;15.63;;;22.50;72.40;;;;;;5016147;28;20053;-75
2022/04/13 10:53:53;;;;;;;32.15;13.93;;;22.60;72.60;;;;;;5014819;28;20030;-76
2022/04/13 10:56:20;;;;;;;;;;;22.90;72.70;;;;;;5015072;28;20025;-77
2022/04/13 10:59:24;;;;;;;39.20;16.65;;;23.20;71.90;;;;;;5013751;28;19913;-76
2022/04/13 11:02:04;;;;;;;40.97;18.52;;;23.50;71.80;;;;;;5013886;28;20030;-76
2022/04/13 11:04:32;;;;;;;36.28;16.55;;;23.60;70.90;;;;;;5014293;28;20072;-76
2022/04/13 11:06:58;;;;;;;33.05;15.73;;;23.70;70.70;;;;;;5014122;28;20045;-76
2022/04/13 11:09:29;;;;;;;36.67;16.30;;;23.70;71.30;;;;;;5018532;28;20026;-76
2022/04/13 11:11:58;;;;;;;35.83;17.10;;;23.90;70.60;;;;;;5016262;28;20054;-77
2022/04/13 11:14:24;;;;;;;34.10;16.52;;;24.20;70.20;;;;;;5014130;28;20026;-76
2022/04/13 11:17:05;;;;;;;37.22;15.98;;;24.50;69.60;;;;;;5013062;28;20046;-75
2022/04/13 11:19:31;;;;;;;40.47;17.08;;;24.90;67.70;;;;;;5015933;28;20483;-77
2022/04/13 11:21:57;;;;;;;35.40;17.10;;;25.10;66.80;;;;;;5014016;28;20113;-75
2022/04/13 11:24:37;;;;;;;36.97;17.00;;;25.30;66.30;;;;;;5013520;28;20065;-75
2022/04/13 11:27:04;;;;;;;38.22;17.33;;;25.20;66.10;;;;;;5018221;28;20102;-77
2022/04/13 11:29:40;;;;;;;35.75;16.48;;;25.00;66.60;;;;;;5016844;28;20034;-75
2022/04/13 11:32:10;;;;;;;47.03;17.20;;;25.00;67.20;;;;;;5015666;28;20025;-76
2022/04/13 11:34:49;;;;;;;37.17;15.70;;;25.10;67.20;;;;;;5014450;28;20026;-77
2022/04/13 11:37:18;;;;;;;33.17;14.90;;;25.30;67.40;;;;;;5014437;28;20014;-75
2022/04/13 11:39:44;;;;;;;37.53;15.02;;;25.60;67.30;;;;;;5013122;28;20509;-74
2022/04/13 11:42:38;;;;;;;47.83;17.88;;;26.20;66.10;;;;;;5013429;28;20026;-77
2022/04/13 11:45:05;;;;;;;39.97;15.85;;;26.90;64.20;;;;;;4998326;28;20127;-76
2022/04/13 11:47:44;;;;;;;40.17;17.13;;;27.50;62.40;;;;;;5012746;28;20026;-75
2022/04/13 11:50:13;;;;;;;41.40;17.70;;;28.00;61.10;;;;;;5014126;28;20410;-75
2022/04/13 11:52:46;;;;;;;41.67;16.67;;;28.30;60.10;;;;;;5015930;28;20097;-77
2022/04/13 11:55:19;;;;;;;35.80;15.82;;;;;;;;;;5013386;28;20098;-74
2022/04/13 11:57:52;;;;;;;38.63;16.10;;;;;;;;;;5012308;28;20037;-76
2022/04/13 12:00:40;;;;;;;38.25;15.70;;;;;;;;;;5013598;28;20131;-74
2022/04/13 12:03:08;;;;;;;36.38;15.75;;;;;;;;;;5013851;28;20054;-77
2022/04/13 12:05:36;;;;;;;30.75;15.00;;;;;;;;;;5014505;28;20033;-75
2022/04/13 12:08:06;;;;;;;37.80;16.17;;;;;;;;;;5013254;28;20060;-76
2022/04/13 12:10:38;;;;;;;31.60;14.95;;;;;;;;;;5014566;28;20084;-77
2022/04/13 12:13:05;;;;;;;42.78;15.63;;;;;;;;;;5012316;28;20514;-76
2022/04/13 12:15:44;;;;;;;37.55;15.23;;;;;;;;;;5014454;28;20699;-76
2022/04/13 12:18:13;;;;;;;34.67;15.38;;;;;;;;;;5014806;28;20019;-74
2022/04/13 12:20:39;;;;;;;32.42;13.45;;;;;;;;;;5013992;28;20030;-77
2022/04/13 12:23:23;;;;;;;33.53;14.00;;;;;;;;;;5015761;28;20033;-77
2022/04/13 12:25:50;;;;;;;36.78;15.48;;;;;;;;;;5018616;28;20534;-76
2022/04/13 12:28:19;;;;;;;35.45;14.77;;;;;;;;;;5016575;28;20022;-76
2022/04/13 12:30:54;;;;;;;35.30;14.63;;;;;;;;;;5017268;28;20018;-77
2022/04/13 12:33:23;;;;;;;33.03;13.32;;;;;;;;;;5017142;28;20382;-76
2022/04/13 12:35:58;;;;;;;36.50;14.13;;;;;;;;;;5017104;28;20018;-77
2022/04/13 12:38:36;;;;;;;27.23;12.98;;;;;;;;;;5017538;28;20067;-76
2022/04/13 12:41:07;;;;;;;25.55;12.07;;;;;;;;;;5016610;28;20029;-76
2022/04/13 12:43:36;;;;;;;29.08;12.45;;;;;;;;;;5016491;28;20037;-75